Tower City, ND (58071)

8:25 PM CDT on September 27, 2016 (GMT -0500)
Home of the Absaraka Crows | | Change Station
Active Advisory: Frost Advisory

Elev 1066 ft 46.98 °N, 97.39 °W | Updated 8 seconds ago

Clear
Clear
50.2 °F
Feels Like 50.2 °F
N
0.0
Wind Variable Wind from West
Gusts 0.7 mph

Today
High -- | Low -- °F
--% Chance of Precip.
Yesterday
High -- | Low -- °F
Precip. -- in
Pressure 29.98 in
Visibility 10.0 miles
Clouds Clear
Dew Point 45 °F
Humidity 83%
Rainfall 0.00 in
Snow Depth Not available.
7:24 AM 7:17 PM
Waning Crescent, 8% visible
METAR KBAC 280115Z AUTO 05005KT 10SM CLR 10/04 A2998 RMK AO2
Pressure 29.98 in
Visibility 10.0 miles
Clouds Clear
Dew Point 45 °F
Humidity 83%
Rainfall 0.00 in
Snow Depth Not available.
7:24 AM 7:17 PM
Waning Crescent, 8% visible
METAR KBAC 280115Z AUTO 05005KT 10SM CLR 10/04 A2998 RMK AO2

10-Day Weather Forecast

Almanac

Astronomy

Sep. 27, 2016 Rise Set
Actual Time
Civil Twilight
Nautical Twilight
Astronomical Twilight
Moon
Length of Visible Light
Length of Day
Tomorrow will be .
, % of the Moon is Illuminated

Today's Extremes

State Highs State Lows

Community

WunderPhotos

Upload Photos

1,942,179 photos uploaded!

WunderBlog® & News

Nearby

Air Quality

  Air Quality AQ Index Pollutant
Not available.

Snow Depth

Station Depth Elevation

Earthquake Activity

City Distance Mag. Time & Date
Minimum magnitude displayed is 2.5.

Coastal Water Temperatures

Place Temperature

Stations

Nearby Weather Stations

Station Location Temp. Windchill Dew Point Humidity Wind Precip. Elev Updated Type
                   

Watches & Warnings

Frost Advisory
Issued: 2:21 PM CDT Sep. 27, 2016 – National Weather Service

... Frost advisory in effect from 1 am to 8 am CDT Wednesday...

The National Weather Service in Grand Forks has issued a frost
advisory... which is in effect from 1 am to 8 am CDT Wednesday.

* Temperatures... 33 to 37.

* Timing... late tonight and into Wednesday morning.

Precautionary/preparedness actions...

A frost advisory means that widespread frost is expected.
Sensitive outdoor plants may be killed if left uncovered.